Time;durP1;ratioP1;P1;durP2;ratioP2;P2;SDS_P1;SDS_P2;PMS_P1;PMS_P2;Temp;Humidity;BMP_temperature;BMP_pressure;BME280_temperature;BME280_humidity;BME280_pressure;Samples;Min_cycle;Max_cycle;Signal;HPM_P1;HPM_P2
2022/07/25 00:02:32;;;;;;;7.97;3.78;;;19.50;99.90;;;;;;4978001;28;20223;-70
2022/07/25 00:05:21;;;;;;;5.40;3.90;;;19.50;99.90;;;;;;4974817;28;20356;-69
2022/07/25 00:08:11;;;;;;;6.15;3.83;;;19.50;99.90;;;;;;4977965;28;20219;-70
2022/07/25 00:11:00;;;;;;;4.53;3.75;;;19.50;99.90;;;;;;4974601;28;20228;-70
2022/07/25 00:13:48;;;;;;;5.15;4.28;;;19.50;99.90;;;;;;4969894;28;20250;-69
2022/07/25 00:16:37;;;;;;;4.15;3.67;;;19.50;99.90;;;;;;4973059;28;20246;-69
2022/07/25 00:19:25;;;;;;;7.93;4.13;;;19.50;99.90;;;;;;4972547;28;20785;-70
2022/07/25 00:22:14;;;;;;;5.25;4.07;;;19.60;99.90;;;;;;4975860;28;20246;-70
2022/07/25 00:25:04;;;;;;;4.72;3.67;;;19.60;99.90;;;;;;5057269;28;20239;-70
2022/07/25 00:27:53;;;;;;;3.95;3.55;;;19.60;99.90;;;;;;4970741;28;20234;-70
2022/07/25 00:30:41;;;;;;;6.97;3.72;;;19.50;99.90;;;;;;4977097;28;20218;-70
2022/07/25 00:33:30;;;;;;;5.00;3.85;;;19.50;99.90;;;;;;4973949;28;20571;-70
2022/07/25 00:36:19;;;;;;;5.18;3.88;;;19.50;99.90;;;;;;4970197;28;20247;-69
2022/07/25 00:39:07;;;;;;;3.83;3.42;;;19.50;99.90;;;;;;4984466;28;20693;-69
2022/07/25 00:41:57;;;;;;;5.18;4.22;;;19.40;99.90;;;;;;4967384;28;20261;-70
2022/07/25 00:44:46;;;;;;;5.00;3.90;;;19.30;99.90;;;;;;4970890;28;20212;-69
2022/07/25 00:47:34;;;;;;;5.57;4.13;;;19.30;99.90;;;;;;4972808;28;20771;-70
2022/07/25 00:50:23;;;;;;;5.72;4.60;;;19.40;99.90;;;;;;4988381;28;20702;-70
2022/07/25 00:53:12;;;;;;;5.28;4.45;;;19.20;99.90;;;;;;4976201;28;20234;-70
2022/07/25 00:56:01;;;;;;;7.80;4.40;;;19.10;99.90;;;;;;4973109;28;20226;-70
2022/07/25 00:58:51;;;;;;;5.53;4.15;;;19.10;99.90;;;;;;4985447;28;20226;-69
2022/07/25 01:01:41;;;;;;;6.50;4.50;;;19.10;99.90;;;;;;4986202;28;20222;-70
2022/07/25 01:04:30;;;;;;;6.72;4.75;;;19.20;99.90;;;;;;4991510;28;20423;-71
2022/07/25 01:07:19;;;;;;;5.65;4.90;;;19.10;99.90;;;;;;5049454;28;20234;-70
2022/07/25 01:10:09;;;;;;;8.73;4.95;;;19.00;99.90;;;;;;4990514;28;20222;-71
2022/07/25 01:12:57;;;;;;;4.95;4.45;;;19.10;99.90;;;;;;4991301;28;20227;-71
2022/07/25 01:15:51;;;;;;;5.53;4.78;;;19.10;99.90;;;;;;4988797;28;20277;-71
2022/07/25 01:18:40;;;;;;;5.90;4.68;;;19.10;99.90;;;;;;4990544;28;20275;-70
2022/07/25 01:21:30;;;;;;;6.05;5.00;;;19.10;99.90;;;;;;4988669;28;20226;-70
2022/07/25 01:24:18;;;;;;;5.95;4.45;;;19.20;99.90;;;;;;4992971;28;20246;-70
2022/07/25 01:27:10;;;;;;;5.03;4.45;;;19.10;99.90;;;;;;4996482;28;20565;-71
2022/07/25 01:30:06;;;;;;;7.35;4.70;;;19.10;99.90;;;;;;5061384;28;20248;-70
2022/07/25 01:32:55;;;;;;;5.03;4.25;;;19.00;99.90;;;;;;4995702;28;20222;-70
2022/07/25 01:35:43;;;;;;;6.05;4.70;;;19.00;99.90;;;;;;4983449;28;20219;-71
2022/07/25 01:38:33;;;;;;;7.32;5.30;;;19.00;99.90;;;;;;5003332;28;20230;-69
2022/07/25 01:41:22;;;;;;;7.28;4.85;;;18.90;99.90;;;;;;4994314;28;20237;-70
2022/07/25 01:44:10;;;;;;;5.63;4.60;;;18.90;99.90;;;;;;4994851;28;20231;-70
2022/07/25 01:46:59;;;;;;;6.68;4.70;;;18.90;99.90;;;;;;4989021;28;20220;-69
2022/07/25 01:49:48;;;;;;;5.18;4.68;;;19.00;99.90;;;;;;5057045;28;20229;-70
2022/07/25 01:52:36;;;;;;;5.18;4.30;;;18.80;99.90;;;;;;5070033;28;20222;-69
2022/07/25 01:55:26;;;;;;;6.55;5.03;;;18.80;99.90;;;;;;4991636;28;20231;-70
2022/07/25 01:58:17;;;;;;;6.63;4.75;;;18.80;99.90;;;;;;4990591;28;20361;-70
2022/07/25 02:01:07;;;;;;;8.55;4.68;;;18.70;99.90;;;;;;4997039;28;20307;-70
2022/07/25 02:03:55;;;;;;;6.97;5.40;;;18.70;99.90;;;;;;4998056;28;20219;-71
2022/07/25 02:06:44;;;;;;;5.40;4.90;;;18.70;99.90;;;;;;4998453;28;20260;-70
2022/07/25 02:09:33;;;;;;;6.55;4.95;;;18.60;99.90;;;;;;4996935;28;20228;-70
2022/07/25 02:12:23;;;;;;;5.63;5.05;;;18.60;99.90;;;;;;5060460;28;20711;-69
2022/07/25 02:15:11;;;;;;;5.18;4.68;;;18.60;99.90;;;;;;4999157;28;20238;-68
2022/07/25 02:18:00;;;;;;;6.05;4.78;;;18.60;99.90;;;;;;4992169;28;20605;-69
2022/07/25 02:20:48;;;;;;;6.55;4.80;;;18.50;99.90;;;;;;5053105;28;20215;-68
2022/07/25 02:23:37;;;;;;;5.43;4.88;;;18.50;99.90;;;;;;5000950;28;20222;-69
2022/07/25 02:26:26;;;;;;;6.88;4.90;;;18.60;99.90;;;;;;4999403;28;20628;-69
2022/07/25 02:29:16;;;;;;;5.85;5.25;;;18.50;99.90;;;;;;4993317;28;20728;-70
2022/07/25 02:32:09;;;;;;;5.57;4.97;;;18.50;99.90;;;;;;5061638;28;20279;-69
2022/07/25 02:34:58;;;;;;;8.30;5.20;;;18.40;99.90;;;;;;4999335;28;20219;-70
2022/07/25 02:37:46;;;;;;;5.57;4.97;;;18.40;99.90;;;;;;5065156;27;20269;-70
2022/07/25 02:40:35;;;;;;;8.50;5.38;;;18.40;99.90;;;;;;5060285;27;20230;-70
2022/07/25 02:43:24;;;;;;;5.28;4.65;;;18.30;99.90;;;;;;4998029;28;20222;-69
2022/07/25 02:46:14;;;;;;;6.32;5.10;;;18.30;99.90;;;;;;4998213;28;20401;-67
2022/07/25 02:49:03;;;;;;;7.82;4.82;;;18.30;99.90;;;;;;4993183;28;20211;-69
2022/07/25 02:51:52;;;;;;;7.95;5.45;;;18.20;99.90;;;;;;4992098;28;20214;-69
2022/07/25 02:54:40;;;;;;;5.88;5.38;;;18.30;99.90;;;;;;4993078;28;20279;-68
2022/07/25 02:57:29;;;;;;;5.95;5.40;;;18.20;99.90;;;;;;5003905;28;20240;-69
2022/07/25 03:00:18;;;;;;;7.15;5.28;;;18.20;99.90;;;;;;5022441;28;20227;-69
2022/07/25 03:03:08;;;;;;;6.70;5.50;;;18.10;99.90;;;;;;4989972;28;20534;-70
2022/07/25 03:05:57;;;;;;;7.20;5.55;;;18.20;99.90;;;;;;4995910;28;20386;-70
2022/07/25 03:08:46;;;;;;;6.82;5.28;;;18.20;99.90;;;;;;4999339;28;20522;-69
2022/07/25 03:11:35;;;;;;;5.88;5.15;;;18.20;99.90;;;;;;4991675;28;20226;-69
2022/07/25 03:14:23;;;;;;;5.78;5.28;;;18.00;99.90;;;;;;4995157;28;20234;-69
2022/07/25 03:17:12;;;;;;;7.03;5.45;;;18.10;99.90;;;;;;5040992;28;20222;-69
2022/07/25 03:20:02;;;;;;;10.73;6.57;;;18.10;99.90;;;;;;5006870;28;20215;-69
2022/07/25 03:22:50;;;;;;;7.18;6.47;;;18.20;99.90;;;;;;4997623;28;20787;-68
2022/07/25 03:25:39;;;;;;;7.25;5.88;;;18.10;99.90;;;;;;4988732;28;20728;-69
2022/07/25 03:28:28;;;;;;;8.27;5.85;;;18.10;99.90;;;;;;4998414;28;20232;-69
2022/07/25 03:31:16;;;;;;;7.13;6.25;;;18.20;99.90;;;;;;4996800;28;20228;-69
2022/07/25 03:34:05;;;;;;;8.88;6.43;;;18.30;99.90;;;;;;4984659;28;20226;-69
2022/07/25 03:36:56;;;;;;;6.97;5.93;;;18.40;99.90;;;;;;4988328;28;20313;-70
2022/07/25 03:39:44;;;;;;;6.50;5.63;;;18.50;99.90;;;;;;5000408;28;20210;-70
2022/07/25 03:42:36;;;;;;;8.05;6.22;;;18.50;99.90;;;;;;4987836;28;20241;-69
2022/07/25 03:45:25;;;;;;;9.32;6.60;;;18.40;99.90;;;;;;4998388;28;20226;-70
2022/07/25 03:48:14;;;;;;;6.78;6.00;;;18.50;99.90;;;;;;4997188;28;20230;-70
2022/07/25 03:51:05;;;;;;;8.60;6.30;;;18.40;99.90;;;;;;4985596;28;20727;-70
2022/07/25 03:54:02;;;;;;;7.13;6.43;;;18.40;99.90;;;;;;5064863;27;20227;-70
2022/07/25 03:56:51;;;;;;;10.52;5.90;;;18.50;99.90;;;;;;5064841;27;20222;-70
2022/07/25 03:59:40;;;;;;;7.75;6.65;;;18.50;99.90;;;;;;4989772;28;20218;-70
2022/07/25 04:02:28;;;;;;;6.43;5.82;;;18.50;99.90;;;;;;5054911;28;20218;-70
2022/07/25 04:05:18;;;;;;;7.82;6.00;;;18.60;99.90;;;;;;4989277;28;20218;-70
2022/07/25 04:08:07;;;;;;;6.85;6.15;;;18.60;99.90;;;;;;4998044;28;20373;-70
2022/07/25 04:10:56;;;;;;;6.13;5.53;;;18.80;99.90;;;;;;4991780;28;20252;-70
2022/07/25 04:13:45;;;;;;;11.90;6.35;;;18.90;99.90;;;;;;5007983;28;20235;-69
2022/07/25 04:16:34;;;;;;;8.95;5.43;;;19.00;99.90;;;;;;4996497;28;20747;-70
2022/07/25 04:19:24;;;;;;;5.82;4.57;;;19.10;99.90;;;;;;5065438;27;20231;-69
2022/07/25 04:22:16;;;;;;;6.15;4.72;;;19.20;99.90;;;;;;4988407;28;20230;-68
2022/07/25 04:25:05;;;;;;;5.65;4.75;;;19.20;99.90;;;;;;5061561;28;20359;-69
2022/07/25 04:27:55;;;;;;;4.95;4.45;;;19.30;99.90;;;;;;5002095;28;20225;-68
2022/07/25 04:30:45;;;;;;;8.98;4.72;;;19.30;99.90;;;;;;5004186;28;20246;-66
2022/07/25 04:33:36;;;;;;;6.50;4.80;;;19.40;99.90;;;;;;4988247;28;20234;-69
2022/07/25 04:36:25;;;;;;;7.47;4.70;;;19.40;99.90;;;;;;5062216;28;20700;-67
2022/07/25 04:39:14;;;;;;;6.45;5.07;;;19.60;99.90;;;;;;5048673;28;20241;-69
2022/07/25 04:42:02;;;;;;;7.40;4.55;;;19.60;99.90;;;;;;5063097;27;20253;-69
2022/07/25 04:44:52;;;;;;;8.20;4.53;;;19.70;99.90;;;;;;4991510;28;20222;-67
2022/07/25 04:47:41;;;;;;;5.13;4.35;;;19.90;99.90;;;;;;4996336;28;20225;-68
2022/07/25 04:50:30;;;;;;;5.63;4.38;;;19.80;99.90;;;;;;4998780;28;20230;-69
2022/07/25 04:53:19;;;;;;;6.80;3.92;;;19.80;99.90;;;;;;5056266;27;20222;-69
2022/07/25 04:56:08;;;;;;;5.10;3.80;;;19.90;99.90;;;;;;4994399;28;20316;-69
2022/07/25 04:58:56;;;;;;;7.97;3.80;;;19.90;99.90;;;;;;5053538;28;20691;-69
2022/07/25 05:01:54;;;;;;;7.03;3.58;;;20.00;99.90;;;;;;4992618;28;20222;-70
2022/07/25 05:04:43;;;;;;;4.65;3.70;;;20.00;99.90;;;;;;5057799;28;20234;-68
2022/07/25 05:07:32;;;;;;;6.15;3.58;;;20.10;99.90;;;;;;5066658;27;20223;-69
2022/07/25 05:10:21;;;;;;;7.85;3.90;;;20.20;99.90;;;;;;4997677;28;20245;-69
2022/07/25 05:13:10;;;;;;;6.10;3.80;;;20.20;99.90;;;;;;4987769;28;20238;-69
2022/07/25 05:16:00;;;;;;;6.53;4.10;;;20.40;99.90;;;;;;4990364;28;20332;-70
2022/07/25 05:18:53;;;;;;;6.60;4.00;;;20.50;99.90;;;;;;4993102;28;20209;-69
2022/07/25 05:21:42;;;;;;;5.55;3.60;;;20.60;99.90;;;;;;4997351;28;20585;-70
2022/07/25 05:24:33;;;;;;;3.92;3.60;;;20.60;99.90;;;;;;4988228;28;20234;-72
2022/07/25 05:27:25;;;;;;;3.95;3.42;;;20.70;99.90;;;;;;4995770;28;20225;-70
2022/07/25 05:30:15;;;;;;;3.63;3.30;;;20.90;99.90;;;;;;5051434;28;20244;-69
2022/07/25 05:33:04;;;;;;;4.18;3.20;;;21.20;99.90;;;;;;5053840;28;20229;-70
2022/07/25 05:35:54;;;;;;;4.60;3.35;;;21.80;99.90;;;;;;5047376;28;20230;-70
2022/07/25 05:38:42;;;;;;;6.20;3.00;;;22.60;99.90;;;;;;5060838;28;20629;-69
2022/07/25 05:41:31;;;;;;;6.10;3.35;;;21.90;99.90;;;;;;4993883;28;20747;-70
2022/07/25 05:44:19;;;;;;;4.82;3.53;;;21.90;99.90;;;;;;4991248;28;20227;-68
2022/07/25 05:47:09;;;;;;;6.15;3.67;;;21.90;99.90;;;;;;4994663;28;20305;-69
2022/07/25 05:49:58;;;;;;;6.28;3.38;;;21.60;99.90;;;;;;4997263;28;20574;-69
2022/07/25 05:52:48;;;;;;;7.53;3.42;;;21.50;99.90;;;;;;4994301;28;20672;-69
2022/07/25 05:55:37;;;;;;;5.57;3.13;;;21.60;99.90;;;;;;4994721;28;20591;-70
2022/07/25 05:58:28;;;;;;;8.50;3.35;;;21.60;99.90;;;;;;4989303;28;20219;-68
2022/07/25 06:01:21;;;;;;;4.60;2.85;;;21.60;99.90;;;;;;4993308;28;20230;-67
2022/07/25 06:04:10;;;;;;;4.93;3.08;;;22.10;99.90;;;;;;5000984;28;20222;-68
2022/07/25 06:06:58;;;;;;;4.07;3.33;;;23.20;99.90;;;;;;5065714;27;20230;-69
2022/07/25 06:09:48;;;;;;;5.78;3.38;;;24.10;99.90;;;;;;5002639;28;20237;-68
2022/07/25 06:12:37;;;;;;;4.75;4.07;;;23.50;99.90;;;;;;5003678;28;20786;-68
2022/07/25 06:15:27;;;;;;;4.88;4.13;;;22.90;99.90;;;;;;4995019;28;20253;-68
2022/07/25 06:18:16;;;;;;;4.82;3.63;;;22.70;99.90;;;;;;4999696;28;20686;-69
2022/07/25 06:21:05;;;;;;;5.35;3.45;;;22.50;99.90;;;;;;4998144;28;20227;-70
2022/07/25 06:23:54;;;;;;;5.13;3.67;;;22.30;99.90;;;;;;4992582;28;20240;-68
2022/07/25 06:26:44;;;;;;;5.90;3.90;;;22.30;99.90;;;;;;5008491;28;20234;-69
2022/07/25 06:29:32;;;;;;;6.18;3.60;;;22.20;99.90;;;;;;4993760;28;20212;-69
2022/07/25 06:32:21;;;;;;;3.83;3.42;;;22.30;99.90;;;;;;4993679;28;20227;-68
2022/07/25 06:35:10;;;;;;;4.82;3.47;;;22.30;99.90;;;;;;5002623;28;20226;-71
2022/07/25 06:37:59;;;;;;;3.95;3.40;;;22.30;99.90;;;;;;5007319;28;20235;-72
2022/07/25 06:40:47;;;;;;;12.15;3.50;;;22.10;99.90;;;;;;5006583;28;20727;-71
2022/07/25 06:43:37;;;;;;;5.88;3.30;;;22.20;99.90;;;;;;4986807;28;20233;-72
2022/07/25 06:46:29;;;;;;;10.68;3.60;;;22.50;99.90;;;;;;4994703;28;20215;-69
2022/07/25 06:49:18;;;;;;;7.03;3.13;;;22.70;99.90;;;;;;5009067;28;20306;-69
2022/07/25 06:52:07;;;;;;;4.75;3.03;;;22.50;99.90;;;;;;4979948;28;20222;-66
2022/07/25 06:54:55;;;;;;;3.45;3.15;;;22.50;99.90;;;;;;4984677;28;20276;-72
2022/07/25 06:57:44;;;;;;;3.92;3.10;;;22.60;99.90;;;;;;4997698;28;20233;-72
2022/07/25 07:00:34;;;;;;;7.38;2.80;;;22.80;99.90;;;;;;5008549;28;20226;-69
2022/07/25 07:03:23;;;;;;;4.20;2.95;;;22.80;99.90;;;;;;4995919;28;20237;-70
2022/07/25 07:06:12;;;;;;;4.13;3.08;;;23.00;99.90;;;;;;5048178;28;20230;-68
2022/07/25 07:09:03;;;;;;;4.72;3.13;;;23.10;99.90;;;;;;5061455;28;20306;-69
2022/07/25 07:11:52;;;;;;;5.35;2.92;;;23.20;99.90;;;;;;4997053;28;20333;-70
2022/07/25 07:14:42;;;;;;;3.92;2.80;;;23.30;99.90;;;;;;4996988;28;20222;-69
2022/07/25 07:17:32;;;;;;;5.50;3.00;;;23.40;99.90;;;;;;4996612;28;20222;-70
2022/07/25 07:20:20;;;;;;;5.65;3.25;;;23.60;99.90;;;;;;4987388;28;20231;-68
2022/07/25 07:23:09;;;;;;;7.07;3.08;;;23.70;99.90;;;;;;4997708;28;20239;-68
2022/07/25 07:26:04;;;;;;;3.70;2.70;;;23.70;99.90;;;;;;5002109;28;20225;-68
2022/07/25 07:28:54;;;;;;;4.53;2.80;;;23.70;99.90;;;;;;5065171;27;20236;-69
2022/07/25 07:31:43;;;;;;;3.97;2.80;;;23.70;99.90;;;;;;4978858;28;20257;-68
2022/07/25 07:34:33;;;;;;;2.50;2.30;;;23.80;99.90;;;;;;5000995;28;20703;-67
2022/07/25 07:37:22;;;;;;;6.38;2.70;;;24.10;99.90;;;;;;4988936;28;20237;-68
2022/07/25 07:40:12;;;;;;;4.80;2.47;;;24.40;99.90;;;;;;5000449;28;20218;-67
2022/07/25 07:43:09;;;;;;;5.97;2.90;;;24.50;99.90;;;;;;5002151;28;21008;-69
2022/07/25 07:45:59;;;;;;;5.15;2.80;;;24.80;99.90;;;;;;5002113;28;20316;-69
2022/07/25 07:48:48;;;;;;;3.42;2.63;;;25.40;99.90;;;;;;4976911;28;20580;-69
2022/07/25 07:51:38;;;;;;;17.45;3.25;;;25.80;99.90;;;;;;4997327;28;20222;-68
2022/07/25 07:57:33;;;;;;;4.85;2.60;;;27.20;99.90;;;;;;4991506;28;20235;-69
2022/07/25 08:00:23;;;;;;;4.18;2.70;;;27.20;97.00;;;;;;4992978;28;20227;-69
2022/07/25 08:03:12;;;;;;;6.13;2.83;;;27.60;96.20;;;;;;4999219;28;20249;-70
2022/07/25 08:06:00;;;;;;;4.15;2.60;;;28.30;96.50;;;;;;5002261;28;20221;-69
2022/07/25 08:08:51;;;;;;;4.15;2.63;;;27.30;95.30;;;;;;4993999;28;20226;-68
2022/07/25 08:11:39;;;;;;;3.90;2.88;;;26.20;99.20;;;;;;5049497;27;20230;-68
2022/07/25 08:14:28;;;;;;;4.10;2.83;;;26.30;99.00;;;;;;4990609;28;20310;-69
2022/07/25 08:17:16;;;;;;;3.08;2.88;;;27.30;96.80;;;;;;5058733;28;20230;-69
2022/07/25 08:20:07;;;;;;;7.43;2.90;;;27.80;94.60;;;;;;4991120;28;20233;-70
2022/07/25 08:23:16;;;;;;;5.25;2.67;;;27.90;92.60;;;;;;4987112;28;20230;-69
2022/07/25 08:26:09;;;;;;;3.03;2.72;;;28.20;91.30;;;;;;4995520;28;20676;-69
2022/07/25 08:28:58;;;;;;;4.38;2.50;;;28.50;90.30;;;;;;4988753;28;21165;-69
2022/07/25 08:32:06;;;;;;;5.22;2.90;;;28.80;90.10;;;;;;4986791;28;20779;-68
2022/07/25 08:34:54;;;;;;;2.83;2.63;;;29.30;86.80;;;;;;4994224;28;20560;-68
2022/07/25 08:37:43;;;;;;;8.15;3.00;;;29.00;84.00;;;;;;4990541;28;20955;-69
2022/07/25 08:40:33;;;;;;;2.75;2.42;;;29.80;83.10;;;;;;4989043;28;20226;-69
2022/07/25 08:43:23;;;;;;;2.95;2.70;;;29.80;81.40;;;;;;5065309;28;20236;-68
2022/07/25 08:46:14;;;;;;;4.03;2.45;;;30.30;80.10;;;;;;4994154;28;20720;-69
2022/07/25 08:49:03;;;;;;;3.78;3.00;;;30.40;78.00;;;;;;4998627;28;20217;-69
2022/07/25 08:51:52;;;;;;;3.75;2.75;;;31.10;73.10;;;;;;4987408;28;20225;-70
2022/07/25 08:54:41;;;;;;;3.72;2.78;;;31.20;71.50;;;;;;4980876;28;20226;-71
2022/07/25 08:57:30;;;;;;;7.35;2.92;;;31.30;72.20;;;;;;5057183;28;20287;-68
2022/07/25 09:00:23;;;;;;;4.85;3.00;;;31.80;68.80;;;;;;4982378;28;20242;-69
2022/07/25 09:03:12;;;;;;;6.03;2.97;;;32.10;66.80;;;;;;4995084;28;20237;-69
2022/07/25 09:06:04;;;;;;;3.10;2.35;;;32.30;69.00;;;;;;4989753;28;20230;-70
2022/07/25 09:08:55;;;;;;;3.40;3.10;;;33.00;66.50;;;;;;4996855;28;20221;-70
2022/07/25 09:11:46;;;;;;;2.95;2.65;;;34.10;63.00;;;;;;4993770;28;20222;-69
2022/07/25 09:14:42;;;;;;;2.90;2.40;;;34.90;59.10;;;;;;4993286;28;20238;-69
2022/07/25 09:17:35;;;;;;;4.45;2.47;;;32.20;62.90;;;;;;5060968;28;20233;-69
2022/07/25 09:20:36;;;;;;;3.42;2.30;;;32.40;65.50;;;;;;4993296;28;20642;-69
2022/07/25 09:23:30;;;;;;;3.22;2.75;;;34.70;60.00;;;;;;4981368;28;20229;-69
2022/07/25 09:26:18;;;;;;;2.67;2.47;;;35.90;57.50;;;;;;4994467;28;20226;-67
2022/07/25 09:29:08;;;;;;;3.17;2.40;;;36.80;55.90;;;;;;5058484;28;20221;-67
2022/07/25 09:32:14;;;;;;;4.57;2.80;;;36.60;55.50;;;;;;4989740;28;20229;-69
2022/07/25 09:35:05;;;;;;;4.97;2.10;;;36.80;54.50;;;;;;5066356;28;20308;-68
2022/07/25 09:37:54;;;;;;;3.97;2.40;;;37.40;54.30;;;;;;4994224;28;20233;-69
2022/07/25 09:40:54;;;;;;;3.95;2.22;;;37.90;51.20;;;;;;4980347;28;20399;-69
2022/07/25 09:43:44;;;;;;;2.60;2.38;;;37.80;52.20;;;;;;5014809;28;20675;-69
2022/07/25 09:46:33;;;;;;;3.28;2.25;;;37.50;51.40;;;;;;5057501;28;20229;-71
2022/07/25 09:49:22;;;;;;;2.63;1.98;;;37.90;49.70;;;;;;4993743;28;20266;-71
2022/07/25 09:52:12;;;;;;;3.13;2.33;;;37.50;50.20;;;;;;5001530;28;20272;-70
2022/07/25 09:55:03;;;;;;;2.45;2.25;;;36.80;49.70;;;;;;4992421;28;20227;-71
2022/07/25 09:57:52;;;;;;;3.70;2.15;;;36.60;51.60;;;;;;4987371;28;20253;-72
2022/07/25 10:00:42;;;;;;;4.50;2.50;;;37.20;51.60;;;;;;4973565;28;20676;-71
2022/07/25 10:03:43;;;;;;;2.35;2.10;;;38.00;50.00;;;;;;4992854;28;20242;-71
2022/07/25 10:06:39;;;;;;;4.18;2.15;;;37.50;50.00;;;;;;5047001;28;20252;-72
2022/07/25 10:09:29;;;;;;;9.52;2.80;;;37.50;50.50;;;;;;5059729;28;20214;-72
2022/07/25 10:12:21;;;;;;;4.47;2.45;;;37.10;51.50;;;;;;4978577;28;20316;-72
2022/07/25 10:15:11;;;;;;;6.80;2.50;;;36.80;51.20;;;;;;4985462;28;20339;-73
2022/07/25 10:18:05;;;;;;;2.63;2.40;;;35.90;53.70;;;;;;4993467;28;20226;-72
2022/07/25 10:21:08;;;;;;;3.75;2.47;;;35.40;53.70;;;;;;5058701;28;20229;-72
2022/07/25 10:24:13;;;;;;;6.28;2.13;;;35.20;54.00;;;;;;4985591;28;20851;-72
2022/07/25 10:27:08;;;;;;;6.20;2.28;;;35.70;53.50;;;;;;4994293;28;20233;-72
2022/07/25 10:29:57;;;;;;;5.13;2.22;;;36.30;53.20;;;;;;4992398;28;20779;-72
2022/07/25 10:32:50;;;;;;;3.55;2.17;;;37.30;50.00;;;;;;5063383;27;20384;-72
2022/07/25 10:35:39;;;;;;;4.28;2.20;;;37.80;49.40;;;;;;4992316;28;20228;-72
2022/07/25 10:38:32;;;;;;;3.08;1.85;;;38.30;49.00;;;;;;4980535;28;20230;-72
2022/07/25 10:41:26;;;;;;;1.83;1.73;;;37.50;49.40;;;;;;4992700;28;20241;-72
2022/07/25 10:44:17;;;;;;;2.50;2.28;;;37.90;48.50;;;;;;4990103;28;20328;-73
2022/07/25 10:47:10;;;;;;;2.92;2.35;;;38.40;48.40;;;;;;4988095;28;20218;-72
2022/07/25 10:50:02;;;;;;;95.30;6.95;;;38.50;48.60;;;;;;4993512;28;20222;-73
2022/07/25 10:53:10;;;;;;;4.15;2.28;;;37.50;50.50;;;;;;4992511;28;20820;-72
2022/07/25 10:56:03;;;;;;;4.60;2.15;;;38.10;49.00;;;;;;5022500;28;20225;-73
2022/07/25 10:58:56;;;;;;;1.85;1.70;;;38.40;47.30;;;;;;5056627;28;20286;-73
2022/07/25 11:01:50;;;;;;;3.83;2.10;;;38.10;48.10;;;;;;4995377;28;20716;-73
2022/07/25 11:04:39;;;;;;;3.42;2.40;;;38.90;46.70;;;;;;5061170;27;20230;-72
2022/07/25 11:07:34;;;;;;;2.78;2.00;;;39.30;46.60;;;;;;5058175;28;20344;-73
2022/07/25 11:10:27;;;;;;;3.60;2.08;;;39.60;46.30;;;;;;4997859;28;20679;-72
2022/07/25 11:13:16;;;;;;;4.22;2.22;;;;;;;;;;4979885;28;20226;-74
2022/07/25 11:16:06;;;;;;;3.47;2.20;;;39.30;46.60;;;;;;5052209;27;20601;-72
2022/07/25 11:18:56;;;;;;;2.28;1.80;;;39.30;46.30;;;;;;4987963;28;20225;-74
2022/07/25 11:21:46;;;;;;;3.40;1.88;;;39.30;44.20;;;;;;4990969;28;20229;-73
2022/07/25 11:24:37;;;;;;;1.95;1.75;;;39.60;43.80;;;;;;4994788;28;20695;-73
2022/07/25 11:27:28;;;;;;;2.35;2.15;;;39.00;44.90;;;;;;4997057;28;20244;-73
2022/07/25 11:30:18;;;;;;;4.85;2.15;;;39.70;44.10;;;;;;4988177;28;20901;-74
2022/07/25 11:33:07;;;;;;;4.97;2.00;;;39.90;44.40;;;;;;4988215;28;20237;-74
2022/07/25 11:35:58;;;;;;;5.45;2.47;;;40.00;44.80;;;;;;4989412;28;20225;-74
2022/07/25 11:38:49;;;;;;;5.40;2.15;;;39.20;45.50;;;;;;5002268;28;20715;-75
2022/07/25 11:41:38;;;;;;;3.40;2.10;;;39.10;46.60;;;;;;5060860;27;20221;-75
2022/07/25 11:44:37;;;;;;;3.42;2.20;;;39.50;46.20;;;;;;5000217;28;20339;-74
2022/07/25 11:47:33;;;;;;;2.08;1.80;;;39.40;44.90;;;;;;4994165;28;20304;-74
2022/07/25 11:50:32;;;;;;;2.40;2.10;;;39.80;43.10;;;;;;4991061;28;20234;-74
2022/07/25 11:53:24;;;;;;;1.90;1.70;;;40.00;42.50;;;;;;4995372;28;20600;-73
2022/07/25 11:56:19;;;;;;;2.13;1.95;;;40.20;41.70;;;;;;4990042;28;20229;-73
2022/07/25 11:59:27;;;;;;;10.27;1.90;;;40.80;41.70;;;;;;5060134;27;20233;-75
2022/07/25 12:02:22;;;;;;;2.65;1.90;;;40.90;42.20;;;;;;4997900;28;20588;-74
2022/07/25 12:05:13;;;;;;;6.32;2.35;;;41.60;40.20;;;;;;4994688;28;20728;-72
2022/07/25 12:08:10;;;;;;;4.82;2.00;;;42.00;41.30;;;;;;4991282;28;20296;-74
2022/07/25 12:11:00;;;;;;;2.33;2.13;;;42.10;39.90;;;;;;4997154;28;20237;-74
2022/07/25 12:13:49;;;;;;;2.58;2.10;;;42.20;40.40;;;;;;4980930;28;20781;-73
2022/07/25 12:16:38;;;;;;;4.35;1.90;;;42.20;40.20;;;;;;5064684;27;20237;-73
2022/07/25 12:19:28;;;;;;;4.03;1.70;;;42.50;39.50;;;;;;4987404;28;20225;-74
2022/07/25 12:22:16;;;;;;;2.65;1.90;;;42.10;38.70;;;;;;4992344;28;20235;-73
2022/07/25 12:25:06;;;;;;;3.72;1.88;;;41.80;40.00;;;;;;4994076;28;20565;-73
2022/07/25 12:28:00;;;;;;;2.95;1.83;;;41.50;38.70;;;;;;5059294;28;20222;-74
2022/07/25 12:30:49;;;;;;;2.88;2.00;;;41.00;40.10;;;;;;4997712;28;20214;-73
2022/07/25 12:33:44;;;;;;;1.73;1.60;;;40.30;40.10;;;;;;4990397;28;20226;-73
2022/07/25 12:36:34;;;;;;;1.88;1.65;;;40.20;41.20;;;;;;5006634;28;20229;-73
2022/07/25 12:39:26;;;;;;;2.00;1.70;;;40.80;41.10;;;;;;5056692;28;20718;-73
2022/07/25 12:42:15;;;;;;;1.65;1.55;;;40.00;41.30;;;;;;5065716;27;20605;-72
2022/07/25 12:45:07;;;;;;;4.00;1.73;;;38.70;43.80;;;;;;5057015;27;20226;-72
2022/07/25 12:47:56;;;;;;;2.47;1.67;;;36.50;46.20;;;;;;5060814;27;20222;-73
2022/07/25 12:50:45;;;;;;;2.38;1.83;;;34.90;48.60;;;;;;4990952;28;20240;-72
2022/07/25 12:53:33;;;;;;;3.05;1.80;;;34.00;50.80;;;;;;5076873;28;20229;-72
2022/07/25 12:56:29;;;;;;;2.58;1.90;;;33.20;51.20;;;;;;4994005;28;20230;-72
2022/07/25 12:59:17;;;;;;;3.88;1.83;;;32.50;52.70;;;;;;5066639;27;20243;-72
2022/07/25 13:02:09;;;;;;;2.70;1.67;;;32.50;54.20;;;;;;5008733;28;20349;-72
2022/07/25 13:05:01;;;;;;;2.58;2.05;;;32.30;54.70;;;;;;4994982;28;20225;-72
2022/07/25 13:07:50;;;;;;;3.63;1.80;;;32.60;54.70;;;;;;5062717;28;20683;-71
2022/07/25 13:10:39;;;;;;;5.70;2.15;;;32.20;54.40;;;;;;5001196;28;20365;-71
2022/07/25 13:13:28;;;;;;;5.07;2.40;;;31.70;55.60;;;;;;4994818;28;20362;-72
2022/07/25 13:16:16;;;;;;;4.55;2.72;;;31.30;56.70;;;;;;4975817;28;20375;-72
2022/07/25 13:19:06;;;;;;;3.45;2.35;;;31.30;58.70;;;;;;5061976;28;20221;-71
2022/07/25 13:21:56;;;;;;;2.30;2.10;;;31.60;57.40;;;;;;5055230;28;20233;-72
2022/07/25 13:24:45;;;;;;;3.15;2.30;;;31.50;57.20;;;;;;4975973;28;20979;-71
2022/07/25 13:27:33;;;;;;;3.70;2.40;;;31.40;57.10;;;;;;4985711;28;20716;-71
2022/07/25 13:30:22;;;;;;;2.45;2.25;;;31.40;56.50;;;;;;4988107;28;20222;-71
2022/07/25 13:33:12;;;;;;;4.45;2.47;;;31.20;57.40;;;;;;4993603;28;20312;-71
2022/07/25 13:36:02;;;;;;;3.70;2.30;;;30.60;60.10;;;;;;5062174;28;20796;-73
2022/07/25 13:38:50;;;;;;;2.92;2.40;;;30.80;58.30;;;;;;4993550;28;20226;-71
2022/07/25 13:41:39;;;;;;;2.80;2.60;;;30.70;58.40;;;;;;5065426;28;20225;-72
2022/07/25 13:44:31;;;;;;;2.58;2.30;;;30.60;59.80;;;;;;4996809;28;20222;-71
2022/07/25 13:47:20;;;;;;;3.22;2.45;;;30.60;58.90;;;;;;5063639;28;20230;-71
2022/07/25 13:50:11;;;;;;;4.43;2.35;;;30.30;58.50;;;;;;4988423;28;20283;-71
2022/07/25 13:53:05;;;;;;;2.67;2.38;;;30.10;59.50;;;;;;5065427;28;20245;-72
2022/07/25 13:55:54;;;;;;;3.70;2.13;;;29.80;59.40;;;;;;5007445;28;20229;-72
2022/07/25 13:58:43;;;;;;;3.92;2.13;;;29.50;60.90;;;;;;4980065;28;20540;-72
2022/07/25 14:01:35;;;;;;;2.70;2.50;;;29.90;61.20;;;;;;4986266;28;20688;-71
2022/07/25 14:04:24;;;;;;;5.80;2.47;;;30.00;61.50;;;;;;5065519;28;20229;-72
2022/07/25 14:07:14;;;;;;;3.38;2.40;;;29.80;60.90;;;;;;5069054;28;20440;-72
2022/07/25 14:10:07;;;;;;;3.85;2.33;;;29.90;62.60;;;;;;5000570;28;20236;-72
2022/07/25 14:12:55;;;;;;;3.15;2.35;;;29.90;61.30;;;;;;5001877;28;20202;-72
2022/07/25 14:15:44;;;;;;;2.75;2.50;;;29.80;62.60;;;;;;4997146;28;20962;-72
2022/07/25 14:18:33;;;;;;;8.20;2.70;;;29.50;61.50;;;;;;4992432;28;20560;-72
2022/07/25 14:21:21;;;;;;;3.60;2.15;;;29.60;62.40;;;;;;5058753;27;20198;-72
2022/07/25 14:24:10;;;;;;;2.97;2.55;;;29.70;62.10;;;;;;4999859;28;20217;-73
2022/07/25 14:33:05;;;;;;;2.88;2.05;;;29.60;62.70;;;;;;4986243;28;20746;-74
2022/07/25 14:35:54;;;;;;;3.17;2.15;;;29.50;62.00;;;;;;4972972;28;20748;-71
2022/07/25 14:38:46;;;;;;;3.40;2.45;;;29.40;62.50;;;;;;4976624;28;20194;-71
2022/07/25 14:41:34;;;;;;;3.38;2.20;;;29.20;64.20;;;;;;4982554;28;20214;-72
2022/07/25 14:44:23;;;;;;;2.50;2.30;;;29.40;63.70;;;;;;4990694;28;20233;-72
2022/07/25 14:47:11;;;;;;;3.40;2.47;;;29.30;64.60;;;;;;4983985;28;20632;-72
2022/07/25 14:50:02;;;;;;;3.65;2.60;;;29.00;66.00;;;;;;4966812;28;20710;-73
2022/07/25 14:52:50;;;;;;;4.00;2.38;;;28.70;66.90;;;;;;4973663;28;20866;-73
2022/07/25 14:55:39;;;;;;;2.97;2.50;;;28.80;67.90;;;;;;4979781;28;20937;-74
2022/07/25 14:58:28;;;;;;;3.10;2.55;;;28.90;67.10;;;;;;4981943;28;20219;-73